OERF

Rafha Domestic Airport

Rafha, Saudi Arabia
TAF OERF 171100Z 1712/1818 34010KT CAVOK BECMG 1718/1720 VRB03KT
Issued Valid From Valid To
Aug-17 @ 11:00 UTC
(4 hours ago)
Aug-17 @ 12:00 UTC
(3 hours ago)
Aug-18 @ 18:00 UTC
(-1 days ago)
Aug-17 @ 12:00 to Aug-17 @ 18:00
TAF OERF 171100Z 1712/1818 34010KT CAVOK
Wind Visibility Clouds Conditions
340° at 10 knots 10,000+ meters
  • No significant clouds
Becoming Aug-17 @ 18:00 to Aug-18 @ 18:00
BECMG 1718/1720 VRB03KT
Wind Visibility Clouds Conditions
Variable at 3 knots 10,000+ meters
  • No significant clouds
TAF OERF 171100Z 1712/1818 34010KT CAVOK BECMG 1718/1720 VRB03KT
Issued Aug-17 @ 11:00 UTC
(4 hours ago)
Valid From Aug-17 @ 12:00 UTC
(3 hours ago)
Valid To Aug-18 @ 18:00 UTC
(-1 days ago)
Aug-17 @ 12:00 - Aug-17 @ 18:00
Wind Visibility
340° at 10 knots 10,000+ meters
Clouds
  • No significant clouds
Conditions
Becoming Aug-17 @ 18:00 - Aug-18 @ 18:00
Wind Visibility
Variable at 3 knots 10,000+ meters
Clouds
  • No significant clouds
Conditions